Time;durP1;ratioP1;P1;durP2;ratioP2;P2;SDS_P1;SDS_P2;PMS_P1;PMS_P2;Temp;Humidity;BMP_temperature;BMP_pressure;BME280_temperature;BME280_humidity;BME280_pressure;Samples;Min_cycle;Max_cycle;Signal;HPM_P1;HPM_P2
2022/06/04 00:01:45;;;;;;;34.10;23.10;;;19.40;85.70;;;;;;5074099;28;20486;-15
2022/06/04 00:04:13;;;;;;;30.58;22.83;;;19.40;85.70;;;;;;5074158;28;20556;-14
2022/06/04 00:06:40;;;;;;;30.42;23.90;;;19.40;85.80;;;;;;5074082;28;20024;-12
2022/06/04 00:09:06;;;;;;;31.88;24.00;;;19.40;85.60;;;;;;5074331;28;20069;-13
2022/06/04 00:17:02;;;;;;;37.47;24.20;;;19.40;85.60;;;;;;5073885;28;20507;-13
2022/06/04 00:19:29;;;;;;;58.80;23.92;;;19.40;85.70;;;;;;5074109;28;20487;-13
2022/06/04 00:21:55;;;;;;;31.83;23.83;;;19.40;85.70;;;;;;5073899;28;20024;-12
2022/06/04 00:24:21;;;;;;;32.58;24.20;;;19.40;85.70;;;;;;5074104;28;20024;-12
2022/06/04 00:26:47;;;;;;;32.13;25.08;;;19.30;85.70;;;;;;5074024;28;20025;-12
2022/06/04 00:29:13;;;;;;;34.83;24.80;;;19.30;85.80;;;;;;5073914;28;20492;-13
2022/06/04 00:31:39;;;;;;;33.75;23.10;;;19.30;85.80;;;;;;5073724;28;20031;-13
2022/06/04 00:34:06;;;;;;;34.95;24.88;;;19.30;85.80;;;;;;5073738;28;20024;-12
2022/06/04 00:36:33;;;;;;;26.98;18.95;;;19.30;85.90;;;;;;5073741;28;20226;-13
2022/06/04 00:38:59;;;;;;;27.80;19.70;;;19.30;85.90;;;;;;5073842;28;20029;-12
2022/06/04 00:41:29;;;;;;;31.83;22.20;;;19.30;85.80;;;;;;5073449;28;20113;-12
2022/06/04 00:44:10;;;;;;;35.17;25.30;;;19.30;85.70;;;;;;5073748;28;20025;-13
2022/06/04 00:46:41;;;;;;;28.23;22.10;;;19.20;85.80;;;;;;5073171;28;20141;-14
2022/06/04 00:49:16;;;;;;;32.03;23.90;;;19.20;85.80;;;;;;5073396;28;20480;-12
2022/06/04 00:51:46;;;;;;;31.92;22.58;;;19.10;85.80;;;;;;5073722;28;20380;-12
2022/06/04 00:54:13;;;;;;;30.48;22.27;;;19.10;85.80;;;;;;5073729;28;20115;-13
2022/06/04 00:56:53;;;;;;;30.50;22.05;;;19.10;85.80;;;;;;5074048;28;20029;-13
2022/06/04 00:59:40;;;;;;;29.40;22.55;;;19.10;85.80;;;;;;5073719;28;20145;-13
2022/06/04 01:02:15;;;;;;;28.75;22.60;;;19.10;85.80;;;;;;5073516;28;20476;-13
2022/06/04 01:04:59;;;;;;;29.13;23.05;;;19.00;85.80;;;;;;5073208;28;20115;-13
2022/06/04 01:07:53;;;;;;;36.83;27.48;;;19.00;85.90;;;;;;5073535;28;20044;-12
2022/06/04 01:10:49;;;;;;;43.60;32.53;;;19.00;85.90;;;;;;5073207;28;20041;-13
2022/06/04 01:13:24;;;;;;;30.10;23.30;;;19.00;86.10;;;;;;5073150;28;20480;-12
2022/06/04 01:15:52;;;;;;;32.67;21.80;;;18.90;86.10;;;;;;5073354;28;20472;-13
2022/06/04 01:18:37;;;;;;;31.13;22.75;;;18.90;86.10;;;;;;5072827;28;20056;-14
2022/06/04 01:21:23;;;;;;;32.63;22.00;;;18.90;86.10;;;;;;5073963;28;20046;-14
2022/06/04 01:24:18;;;;;;;43.47;32.17;;;18.90;86.10;;;;;;5073054;28;20067;-12
2022/06/04 01:27:06;;;;;;;32.22;22.58;;;18.80;86.10;;;;;;5073285;28;20017;-12
2022/06/04 01:29:46;;;;;;;38.10;25.83;;;18.70;86.20;;;;;;5075233;28;20082;-12
2022/06/04 01:32:21;;;;;;;34.97;23.65;;;18.60;86.40;;;;;;5077086;28;20035;-13
2022/06/04 01:35:12;;;;;;;35.78;25.63;;;18.60;86.20;;;;;;5077050;28;20039;-13
2022/06/04 01:37:42;;;;;;;37.67;24.92;;;18.50;86.30;;;;;;5077125;28;20012;-13
2022/06/04 01:42:59;;;;;;;33.30;22.35;;;18.50;86.40;;;;;;5077250;28;20109;-14
2022/06/04 01:45:28;;;;;;;30.25;23.17;;;18.50;86.40;;;;;;5076832;28;20029;-12
2022/06/04 01:47:58;;;;;;;38.30;26.45;;;18.50;86.40;;;;;;5076558;28;20048;-12
2022/06/04 01:50:32;;;;;;;49.45;25.38;;;18.50;86.40;;;;;;5076748;28;20072;-13
2022/06/04 01:53:00;;;;;;;37.08;26.67;;;18.50;86.50;;;;;;5076739;28;20388;-12
2022/06/04 01:55:37;;;;;;;35.83;25.23;;;18.50;86.40;;;;;;5076636;28;20027;-13
2022/06/04 01:58:08;;;;;;;31.15;23.25;;;18.50;86.50;;;;;;5076785;28;20024;-13
2022/06/04 02:00:43;;;;;;;31.17;23.17;;;18.50;86.50;;;;;;5076394;28;20035;-13
2022/06/04 02:03:24;;;;;;;33.60;25.30;;;18.50;86.60;;;;;;5076417;28;20024;-13
2022/06/04 02:06:10;;;;;;;32.72;24.33;;;18.40;86.50;;;;;;5076426;28;20028;-13
2022/06/04 02:08:53;;;;;;;29.65;22.55;;;18.40;86.60;;;;;;5076548;28;20025;-13
2022/06/04 02:11:22;;;;;;;33.43;26.17;;;18.40;86.60;;;;;;5076695;28;20035;-12
2022/06/04 02:13:51;;;;;;;36.25;23.55;;;18.40;86.60;;;;;;5076277;28;20786;-13
2022/06/04 02:16:46;;;;;;;28.10;19.95;;;18.40;86.60;;;;;;5075920;28;20035;-12
2022/06/04 02:19:12;;;;;;;32.42;21.65;;;18.40;86.60;;;;;;5074400;28;20128;-12
2022/06/04 02:21:39;;;;;;;23.65;18.90;;;18.30;86.70;;;;;;5074318;28;20086;-13
2022/06/04 02:24:06;;;;;;;31.55;21.58;;;18.30;86.60;;;;;;5074286;28;20090;-13
2022/06/04 02:26:34;;;;;;;53.88;25.30;;;18.20;86.70;;;;;;5073772;28;20120;-13
2022/06/04 02:29:01;;;;;;;31.13;24.27;;;18.20;86.60;;;;;;5073921;28;20106;-13
2022/06/04 02:31:32;;;;;;;37.30;25.33;;;18.20;86.60;;;;;;5074161;28;20036;-12
2022/06/04 02:34:16;;;;;;;49.85;32.00;;;18.10;86.70;;;;;;5074213;28;20091;-13
2022/06/04 02:37:16;;;;;;;38.15;24.70;;;18.10;86.70;;;;;;5073779;28;20028;-13
2022/06/04 02:39:57;;;;;;;42.50;30.83;;;18.10;86.80;;;;;;5074447;28;20546;-13
2022/06/04 02:42:31;;;;;;;61.70;34.75;;;18.10;86.70;;;;;;5073521;28;20033;-12
2022/06/04 02:45:04;;;;;;;35.03;23.55;;;18.00;86.80;;;;;;5073633;28;20068;-13
2022/06/04 02:47:38;;;;;;;33.92;24.17;;;18.00;86.80;;;;;;5073448;28;20083;-13
2022/06/04 02:50:24;;;;;;;31.63;22.42;;;17.90;87.00;;;;;;5074604;28;20064;-15
2022/06/04 02:52:53;;;;;;;32.58;23.02;;;17.90;87.10;;;;;;5076196;28;20467;-13
2022/06/04 02:55:27;;;;;;;42.30;28.63;;;17.90;87.20;;;;;;5075471;28;20025;-12
2022/06/04 02:57:58;;;;;;;26.17;18.17;;;17.90;87.20;;;;;;5075884;28;20029;-13
2022/06/04 03:00:26;;;;;;;33.70;22.65;;;17.90;87.20;;;;;;5075282;28;20028;-12
2022/06/04 03:02:53;;;;;;;32.38;24.50;;;17.90;87.10;;;;;;5075644;28;20020;-13
2022/06/04 03:05:23;;;;;;;33.28;23.63;;;17.90;87.10;;;;;;5076509;28;20024;-13
2022/06/04 03:07:51;;;;;;;28.50;21.88;;;17.90;87.20;;;;;;5075291;28;20025;-13
2022/06/04 03:10:22;;;;;;;31.30;22.98;;;17.90;87.20;;;;;;5075321;28;20033;-13
2022/06/04 03:12:48;;;;;;;32.83;22.15;;;17.80;87.20;;;;;;5075300;28;20120;-13
2022/06/04 03:15:14;;;;;;;30.52;22.20;;;17.70;87.30;;;;;;5075131;28;20024;-13
2022/06/04 03:17:42;;;;;;;36.67;26.40;;;17.80;87.20;;;;;;5075348;28;20031;-13
2022/06/04 03:20:10;;;;;;;27.00;18.95;;;17.80;87.30;;;;;;5075088;28;20476;-13
2022/06/04 03:22:36;;;;;;;23.85;17.10;;;17.80;87.40;;;;;;5074856;28;20107;-13
2022/06/04 03:25:03;;;;;;;25.70;17.65;;;17.70;87.30;;;;;;5075468;28;20043;-13
2022/06/04 03:27:29;;;;;;;23.88;17.38;;;17.80;87.30;;;;;;5073679;28;20024;-13
2022/06/04 03:29:55;;;;;;;24.92;18.92;;;17.70;87.30;;;;;;5074877;28;20029;-13
2022/06/04 03:32:21;;;;;;;25.25;19.73;;;17.70;87.30;;;;;;5074643;28;20024;-13
2022/06/04 03:34:47;;;;;;;25.42;18.75;;;17.70;87.30;;;;;;5075116;28;20064;-13
2022/06/04 03:37:14;;;;;;;23.77;17.02;;;17.70;87.30;;;;;;5074969;28;20503;-12
2022/06/04 03:39:40;;;;;;;35.05;16.98;;;17.60;87.20;;;;;;5075368;28;20464;-12
2022/06/04 03:42:07;;;;;;;95.43;13.73;;;17.60;87.20;;;;;;5074831;28;20111;-12
2022/06/04 03:44:32;;;;;;;18.67;13.05;;;17.60;87.10;;;;;;5074469;28;20502;-13
2022/06/04 03:46:59;;;;;;;121.78;19.65;;;17.60;87.10;;;;;;5072989;28;20040;-12
2022/06/04 03:49:25;;;;;;;131.98;20.10;;;17.50;87.10;;;;;;5074374;28;20071;-12
2022/06/04 03:51:52;;;;;;;22.92;17.90;;;17.50;87.10;;;;;;5072731;28;20028;-12
2022/06/04 03:54:52;;;;;;;30.48;21.55;;;17.50;87.10;;;;;;5074412;28;20028;-13
2022/06/04 03:59:52;;;;;;;27.88;20.98;;;17.50;87.30;;;;;;5074912;28;20027;-13
2022/06/04 04:02:20;;;;;;;27.95;19.90;;;17.50;87.30;;;;;;5074064;28;20550;-13
2022/06/04 04:04:46;;;;;;;22.17;16.50;;;17.50;87.40;;;;;;5074467;28;20035;-14
2022/06/04 04:07:14;;;;;;;24.10;18.10;;;17.60;87.50;;;;;;5074437;28;20119;-13
2022/06/04 04:09:41;;;;;;;27.98;21.13;;;17.60;87.40;;;;;;5074275;28;20040;-13
2022/06/04 04:12:08;;;;;;;32.90;23.30;;;17.60;87.30;;;;;;5073995;28;20388;-12
2022/06/04 04:14:34;;;;;;;27.20;19.63;;;17.60;87.20;;;;;;5073810;28;20492;-13
2022/06/04 04:17:00;;;;;;;34.33;23.15;;;17.60;87.30;;;;;;5074108;28;20017;-13
2022/06/04 04:19:30;;;;;;;30.05;21.77;;;17.70;87.20;;;;;;5074164;28;20024;-14
2022/06/04 04:21:57;;;;;;;34.20;24.27;;;17.80;87.30;;;;;;5073892;28;20126;-13
2022/06/04 04:24:23;;;;;;;36.83;26.80;;;17.80;87.40;;;;;;5073583;28;20036;-13
2022/06/04 04:26:49;;;;;;;37.70;26.02;;;17.90;87.20;;;;;;5074066;28;20065;-12
2022/06/04 04:29:15;;;;;;;37.28;26.17;;;17.90;87.30;;;;;;5073742;28;20507;-13
2022/06/04 04:31:41;;;;;;;28.58;22.13;;;18.00;87.30;;;;;;5073601;28;20397;-13
2022/06/04 04:34:08;;;;;;;31.05;21.23;;;18.00;87.50;;;;;;5073832;28;20059;-12
2022/06/04 04:36:34;;;;;;;32.38;23.00;;;18.10;87.30;;;;;;5073744;28;20029;-13
2022/06/04 04:39:00;;;;;;;38.85;26.13;;;18.20;87.30;;;;;;5073921;28;20388;-12
2022/06/04 04:41:27;;;;;;;40.00;27.38;;;18.30;87.30;;;;;;5073477;28;20078;-13
2022/06/04 04:43:53;;;;;;;42.58;29.88;;;18.40;87.30;;;;;;5073410;28;20025;-13
2022/06/04 04:46:20;;;;;;;33.20;23.17;;;18.40;87.10;;;;;;5073083;28;20023;-13
2022/06/04 04:48:47;;;;;;;33.63;24.00;;;18.50;87.30;;;;;;5073458;28;20024;-13
2022/06/04 04:51:21;;;;;;;46.58;30.92;;;18.50;87.20;;;;;;5073673;28;20031;-13
2022/06/04 04:53:47;;;;;;;;;;;18.70;87.10;;;;;;5074091;28;20027;-14
2022/06/04 04:56:21;;;;;;;31.65;23.02;;;18.70;87.20;;;;;;5073470;28;19939;-13
2022/06/04 04:58:48;;;;;;;29.83;21.15;;;18.80;87.00;;;;;;5073343;28;20024;-13
2022/06/04 05:01:17;;;;;;;38.63;27.50;;;18.90;86.70;;;;;;5073229;28;20507;-13
2022/06/04 05:03:44;;;;;;;35.47;24.67;;;19.00;87.80;;;;;;5072412;28;20028;-14
2022/06/04 05:06:14;;;;;;;35.50;25.10;;;19.10;86.70;;;;;;5073475;28;20078;-13
2022/06/04 05:08:40;;;;;;;36.78;26.27;;;19.20;86.40;;;;;;5073521;28;20047;-14
2022/06/04 05:11:15;;;;;;;38.70;26.77;;;19.40;86.30;;;;;;5073321;28;20028;-14
2022/06/04 05:13:42;;;;;;;39.55;27.13;;;19.50;86.60;;;;;;5073134;28;20082;-14
2022/06/04 05:16:08;;;;;;;37.35;25.75;;;19.60;86.60;;;;;;5073373;28;20029;-13
2022/06/04 05:18:34;;;;;;;44.80;30.73;;;19.70;86.30;;;;;;5072793;28;20485;-14
2022/06/04 05:21:08;;;;;;;37.85;27.35;;;19.90;86.30;;;;;;5072997;28;20042;-13
2022/06/04 05:23:34;;;;;;;36.45;27.52;;;19.90;86.30;;;;;;5073845;28;20448;-14
2022/06/04 05:26:00;;;;;;;49.85;34.53;;;20.00;86.20;;;;;;5073275;28;20121;-14
2022/06/04 05:28:27;;;;;;;38.75;26.98;;;20.10;86.70;;;;;;5072569;28;20032;-13
2022/06/04 05:30:53;;;;;;;38.85;27.23;;;20.20;86.20;;;;;;5072921;28;20041;-13
2022/06/04 05:33:20;;;;;;;38.78;27.45;;;20.40;86.20;;;;;;5072847;28;20035;-13
2022/06/04 05:35:46;;;;;;;30.13;21.60;;;20.40;86.40;;;;;;5071668;28;20029;-14
2022/06/04 05:38:12;;;;;;;46.38;33.63;;;20.50;85.80;;;;;;5073717;28;20035;-13
2022/06/04 05:40:38;;;;;;;35.70;24.40;;;20.70;86.60;;;;;;5072647;28;20027;-13
2022/06/04 05:43:04;;;;;;;40.28;29.33;;;20.80;85.70;;;;;;5073402;28;20025;-12
2022/06/04 05:45:30;;;;;;;39.50;29.60;;;20.90;85.40;;;;;;5072824;28;20476;-14
2022/06/04 05:47:57;;;;;;;39.90;28.45;;;21.10;85.20;;;;;;5072679;28;20127;-13
2022/06/04 05:50:23;;;;;;;35.83;27.33;;;21.20;85.30;;;;;;5072472;28;20028;-14
2022/06/04 05:52:49;;;;;;;33.90;26.50;;;21.30;84.80;;;;;;5071508;28;20078;-13
2022/06/04 05:55:14;;;;;;;30.45;22.17;;;21.40;84.80;;;;;;5072709;28;20034;-9
2022/06/04 05:57:40;;;;;;;38.53;27.08;;;21.50;84.40;;;;;;5072619;28;20036;-11
2022/06/04 06:00:08;;;;;;;43.92;31.20;;;21.60;84.20;;;;;;5072655;28;20107;-11
2022/06/04 06:02:35;;;;;;;33.42;25.77;;;21.80;84.60;;;;;;5072683;28;20029;-10
2022/06/04 06:05:03;;;;;;;32.75;25.02;;;21.90;84.50;;;;;;5073175;28;20504;-10
2022/06/04 06:07:29;;;;;;;34.20;25.67;;;22.00;84.00;;;;;;5072902;28;20051;-11
2022/06/04 06:09:55;;;;;;;29.20;23.38;;;22.10;83.70;;;;;;5072824;28;20036;-11
2022/06/04 06:12:23;;;;;;;29.30;23.15;;;22.20;83.40;;;;;;5072360;28;20545;-12
2022/06/04 06:14:49;;;;;;;28.48;21.75;;;22.30;83.10;;;;;;5073552;28;20035;-10
2022/06/04 06:17:16;;;;;;;35.78;25.98;;;22.40;83.00;;;;;;5076677;28;20028;-11
2022/06/04 06:19:42;;;;;;;33.13;24.98;;;22.50;82.00;;;;;;5076497;28;20517;-11
2022/06/04 06:22:07;;;;;;;31.98;25.63;;;22.50;81.60;;;;;;5076331;28;20507;-10
2022/06/04 06:24:34;;;;;;;31.95;25.02;;;22.60;81.60;;;;;;5076189;28;20044;-10
2022/06/04 06:27:02;;;;;;;32.45;25.08;;;22.80;80.80;;;;;;5076046;28;20029;-11
2022/06/04 06:29:30;;;;;;;35.10;28.15;;;22.90;81.30;;;;;;5076352;28;20109;-12
2022/06/04 06:31:58;;;;;;;35.13;28.02;;;23.00;81.10;;;;;;5076207;28;20028;-11
2022/06/04 06:34:24;;;;;;;35.97;28.13;;;23.10;81.30;;;;;;5076036;28;20119;-11
2022/06/04 06:36:51;;;;;;;31.85;25.90;;;23.30;81.00;;;;;;5076227;28;20021;-11
2022/06/04 06:39:17;;;;;;;38.25;29.70;;;23.40;80.00;;;;;;5076959;28;20025;-11
2022/06/04 06:41:43;;;;;;;33.17;24.73;;;23.50;80.20;;;;;;5076147;28;20033;-11
2022/06/04 06:44:13;;;;;;;32.40;25.45;;;23.70;79.70;;;;;;5076109;28;20040;-11
2022/06/04 06:46:45;;;;;;;28.13;21.70;;;23.90;79.50;;;;;;5075721;28;20118;-11
2022/06/04 06:49:24;;;;;;;29.77;23.08;;;24.00;78.90;;;;;;5075829;28;20052;-11
2022/06/04 06:51:54;;;;;;;33.95;27.08;;;24.20;77.10;;;;;;5075984;28;20031;-11
2022/06/04 06:54:22;;;;;;;29.48;23.70;;;24.40;76.70;;;;;;5075387;28;20027;-11
2022/06/04 06:56:50;;;;;;;28.95;23.25;;;24.50;76.10;;;;;;5075909;28;20032;-10
2022/06/04 06:59:20;;;;;;;30.50;23.20;;;24.60;75.70;;;;;;5076103;28;20028;-11
2022/06/04 07:01:51;;;;;;;23.42;18.40;;;24.70;74.70;;;;;;5075441;28;20027;-12
2022/06/04 07:04:18;;;;;;;23.20;19.33;;;24.80;74.60;;;;;;5075622;28;20020;-12
2022/06/04 07:06:48;;;;;;;30.38;21.52;;;24.90;74.60;;;;;;5075642;28;20051;-12
2022/06/04 07:09:23;;;;;;;30.70;24.10;;;24.90;74.70;;;;;;5075268;28;20021;-12
2022/06/04 07:11:50;;;;;;;27.33;20.75;;;24.90;74.20;;;;;;5075591;28;20054;-12
2022/06/04 07:14:17;;;;;;;31.63;23.35;;;25.10;74.10;;;;;;5073810;28;20500;-12
2022/06/04 07:16:44;;;;;;;26.48;20.67;;;25.30;73.80;;;;;;5075068;28;20393;-13
2022/06/04 07:19:13;;;;;;;29.70;22.95;;;25.50;72.70;;;;;;5074165;28;20036;-13
2022/06/04 07:21:40;;;;;;;30.15;23.65;;;25.70;72.50;;;;;;5075041;28;20025;-12
2022/06/04 07:24:07;;;;;;;25.13;20.27;;;25.90;71.20;;;;;;5075060;28;20031;-13
2022/06/04 07:26:33;;;;;;;24.48;17.15;;;25.90;70.70;;;;;;5074067;28;20021;-12
2022/06/04 07:29:00;;;;;;;20.98;16.10;;;26.00;70.70;;;;;;5074887;28;20130;-11
2022/06/04 07:31:27;;;;;;;18.42;13.95;;;26.10;69.80;;;;;;5075207;28;20028;-11
2022/06/04 07:33:55;;;;;;;16.95;13.52;;;26.30;69.40;;;;;;5074749;28;20391;-11
2022/06/04 07:36:30;;;;;;;16.42;12.77;;;26.40;69.00;;;;;;5074583;28;20118;-11
2022/06/04 07:38:57;;;;;;;21.88;15.55;;;26.60;67.90;;;;;;5074742;28;20492;-11
2022/06/04 07:41:30;;;;;;;24.95;16.85;;;26.80;64.40;;;;;;5074925;28;20021;-12
2022/06/04 07:43:56;;;;;;;;;;;26.90;64.60;;;;;;5075145;28;20112;-11
2022/06/04 07:46:24;;;;;;;19.75;14.50;;;27.00;63.90;;;;;;5074213;28;19911;-11
2022/06/04 07:48:50;;;;;;;19.45;15.95;;;27.20;65.20;;;;;;5074551;28;20029;-11
2022/06/04 07:51:17;;;;;;;19.50;14.85;;;27.30;65.00;;;;;;5074588;28;20028;-12
2022/06/04 07:53:43;;;;;;;16.52;13.10;;;27.40;65.20;;;;;;5073567;28;20052;-12
2022/06/04 07:56:16;;;;;;;14.73;12.02;;;27.50;65.00;;;;;;5074397;28;20078;-12
2022/06/04 07:58:43;;;;;;;13.43;11.25;;;27.70;63.50;;;;;;5073867;28;20021;-12
2022/06/04 08:01:14;;;;;;;18.73;12.80;;;27.90;63.90;;;;;;5074584;28;20032;-12
2022/06/04 08:03:42;;;;;;;15.80;12.00;;;28.10;62.80;;;;;;5074196;28;20366;-12
2022/06/04 08:06:10;;;;;;;20.65;15.73;;;28.20;62.80;;;;;;5074455;28;20036;-12
2022/06/04 08:08:36;;;;;;;15.98;12.57;;;28.40;62.20;;;;;;5073979;28;20600;-13
2022/06/04 08:11:30;;;;;;;25.77;17.38;;;28.40;61.90;;;;;;5072446;28;20044;-12
2022/06/04 08:13:50;;;;;;;18.17;12.93;;;28.30;61.10;;;;;;5074351;28;20036;-11
2022/06/04 08:16:17;;;;;;;19.10;14.93;;;28.10;61.70;;;;;;5074185;28;20063;-12
2022/06/04 08:18:43;;;;;;;23.88;16.15;;;28.10;61.80;;;;;;5073912;28;20503;-12
2022/06/04 08:21:09;;;;;;;17.77;12.65;;;28.30;61.20;;;;;;5073913;28;20017;-12
2022/06/04 08:23:35;;;;;;;17.20;13.68;;;28.40;61.20;;;;;;5073850;28;20025;-12
2022/06/04 08:26:02;;;;;;;22.83;15.73;;;28.60;60.30;;;;;;5074114;28;20021;-12
2022/06/04 08:28:27;;;;;;;16.00;11.85;;;28.80;59.40;;;;;;5073854;28;20039;-12
2022/06/04 08:31:02;;;;;;;16.13;11.20;;;28.90;59.40;;;;;;5073775;28;20479;-11
2022/06/04 08:33:29;;;;;;;16.65;13.00;;;29.40;58.90;;;;;;5073610;28;20033;-13
2022/06/04 08:35:55;;;;;;;15.18;12.63;;;29.90;57.70;;;;;;5074263;28;20078;-12
2022/06/04 08:38:21;;;;;;;12.38;10.98;;;30.30;57.30;;;;;;5073279;28;20082;-12
2022/06/04 08:40:53;;;;;;;15.35;11.23;;;30.70;57.00;;;;;;5073874;28;20048;-12
2022/06/04 08:43:46;;;;;;;17.03;12.93;;;31.10;56.20;;;;;;5073550;28;20028;-12
2022/06/04 08:46:34;;;;;;;18.90;14.32;;;31.40;55.10;;;;;;5073316;28;20376;-11
2022/06/04 08:49:05;;;;;;;19.92;15.77;;;31.60;54.20;;;;;;5073606;28;20388;-11
2022/06/04 08:51:32;;;;;;;19.50;15.68;;;31.80;53.10;;;;;;5073415;28;20466;-12
2022/06/04 08:57:32;;;;;;;20.10;15.43;;;31.90;51.90;;;;;;5073650;28;20032;-12
2022/06/04 08:59:47;;;;;;;15.40;11.07;;;31.90;52.00;;;;;;5073718;28;20077;-12
2022/06/04 09:02:19;;;;;;;16.52;12.27;;;32.10;51.30;;;;;;5073274;28;20020;-13
2022/06/04 09:05:06;;;;;;;15.40;11.23;;;32.40;48.40;;;;;;5073330;28;20025;-14
2022/06/04 09:07:40;;;;;;;15.65;10.80;;;32.50;48.60;;;;;;5073524;28;20024;-12
2022/06/04 09:10:29;;;;;;;15.00;9.57;;;32.50;49.00;;;;;;5073176;28;20037;-12
2022/06/04 09:13:02;;;;;;;14.32;10.40;;;32.50;49.40;;;;;;5073927;28;20070;-12
2022/06/04 09:15:34;;;;;;;16.15;11.63;;;32.50;49.80;;;;;;5073185;28;20032;-12
2022/06/04 09:18:32;;;;;;;13.43;10.05;;;32.50;50.10;;;;;;5073123;28;20392;-12
2022/06/04 09:21:01;;;;;;;15.23;12.35;;;32.30;50.80;;;;;;5072843;28;20094;-12
2022/06/04 09:23:39;;;;;;;15.73;11.35;;;32.20;50.00;;;;;;5073374;28;20025;-12
2022/06/04 09:26:13;;;;;;;17.27;12.45;;;32.40;47.90;;;;;;5073020;28;20025;-12
2022/06/04 09:28:48;;;;;;;19.17;14.23;;;32.30;48.70;;;;;;5073330;28;20025;-11
2022/06/04 09:31:34;;;;;;;18.60;13.77;;;32.10;48.70;;;;;;5072921;28;20035;-12
2022/06/04 09:34:15;;;;;;;13.05;10.23;;;31.70;48.70;;;;;;5072459;28;20029;-13
2022/06/04 09:36:45;;;;;;;15.18;9.52;;;31.30;50.70;;;;;;5072951;28;20063;-13
2022/06/04 09:39:31;;;;;;;12.68;9.05;;;31.50;51.40;;;;;;5073190;28;20082;-12
2022/06/04 09:42:01;;;;;;;17.02;12.75;;;32.00;50.50;;;;;;5073038;28;20020;-12
2022/06/04 09:44:29;;;;;;;22.45;13.90;;;32.70;48.10;;;;;;5072839;28;20064;-13
2022/06/04 09:47:10;;;;;;;15.18;11.45;;;33.00;47.30;;;;;;5072570;28;20075;-12
2022/06/04 09:49:51;;;;;;;16.73;13.30;;;33.10;47.10;;;;;;5073537;28;20078;-11
2022/06/04 09:52:33;;;;;;;20.02;13.57;;;33.10;47.50;;;;;;5076623;28;20496;-12
2022/06/04 09:55:08;;;;;;;17.57;14.40;;;33.30;46.80;;;;;;5077129;28;20031;-11
2022/06/04 09:57:36;;;;;;;22.88;16.10;;;33.40;46.60;;;;;;5077067;28;20112;-13
2022/06/04 10:00:17;;;;;;;18.85;15.07;;;33.40;46.30;;;;;;5076730;28;20040;-13
2022/06/04 10:02:53;;;;;;;20.10;13.65;;;33.20;46.70;;;;;;5076385;28;20424;-12
2022/06/04 10:05:23;;;;;;;16.67;12.45;;;32.90;47.40;;;;;;5077217;28;20059;-12
2022/06/04 10:07:50;;;;;;;17.25;13.10;;;32.70;48.30;;;;;;5076843;28;20025;-12
2022/06/04 10:10:24;;;;;;;22.23;15.32;;;32.80;48.70;;;;;;5076457;28;20028;-11
2022/06/04 10:15:41;;;;;;;23.60;15.00;;;33.00;47.80;;;;;;5076719;28;20396;-13
2022/06/04 10:18:28;;;;;;;15.93;12.82;;;33.20;48.10;;;;;;5076496;28;20029;-12
2022/06/04 10:21:16;;;;;;;19.40;14.93;;;33.70;47.10;;;;;;5076287;28;20028;-13
2022/06/04 10:23:50;;;;;;;17.95;12.23;;;34.30;44.70;;;;;;5076731;28;20049;-11
2022/06/04 10:26:17;;;;;;;20.95;11.70;;;34.80;44.50;;;;;;5075984;28;20514;-12
2022/06/04 10:28:50;;;;;;;20.08;13.40;;;35.20;43.90;;;;;;5076443;28;20029;-13
2022/06/04 10:31:53;;;;;;;16.10;10.45;;;35.40;43.20;;;;;;5076047;28;20028;-12
2022/06/04 10:34:34;;;;;;;;;;;35.20;42.60;;;;;;5076494;28;20028;-11
2022/06/04 10:37:21;;;;;;;13.63;9.50;;;35.20;42.10;;;;;;5076212;28;19904;-12
2022/06/04 10:40:24;;;;;;;13.95;9.57;;;35.40;41.30;;;;;;5075894;28;20024;-12
2022/06/04 10:43:03;;;;;;;19.70;14.57;;;35.70;41.50;;;;;;5076197;28;20031;-13
2022/06/04 10:45:29;;;;;;;20.67;13.82;;;36.00;40.70;;;;;;5074584;28;20119;-12
2022/06/04 10:47:56;;;;;;;14.20;9.00;;;35.80;41.30;;;;;;5074229;28;20552;-12
2022/06/04 10:50:25;;;;;;;16.38;8.95;;;35.70;42.20;;;;;;5075649;28;20388;-13
2022/06/04 10:52:56;;;;;;;11.13;7.05;;;36.00;40.00;;;;;;5076165;28;20048;-11
2022/06/04 10:55:24;;;;;;;14.38;8.73;;;36.20;40.60;;;;;;5075805;28;20035;-13
2022/06/04 10:58:19;;;;;;;11.95;7.00;;;36.50;39.80;;;;;;5075876;28;20040;-12
2022/06/04 11:00:52;;;;;;;8.80;6.35;;;36.70;39.50;;;;;;5075263;28;20420;-12
2022/06/04 11:03:32;;;;;;;15.73;7.95;;;37.10;39.80;;;;;;5075095;28;20135;-13
2022/06/04 11:06:02;;;;;;;13.25;7.10;;;37.60;38.30;;;;;;5075458;28;20075;-12
2022/06/04 11:08:38;;;;;;;10.75;6.63;;;37.90;37.50;;;;;;5075767;28;20102;-11
2022/06/04 11:11:17;;;;;;;11.90;7.00;;;38.00;36.70;;;;;;5074110;28;20056;-11
2022/06/04 11:13:50;;;;;;;9.02;6.30;;;38.00;36.60;;;;;;5075334;28;20031;-12
2022/06/04 11:16:34;;;;;;;10.38;6.80;;;38.20;36.80;;;;;;5075107;28;20039;-11
2022/06/04 11:19:21;;;;;;;14.55;7.43;;;38.40;35.70;;;;;;5075593;28;20021;-12
2022/06/04 11:22:17;;;;;;;14.10;7.07;;;38.70;35.40;;;;;;5075398;28;20369;-13
2022/06/04 11:24:57;;;;;;;8.40;5.75;;;38.90;35.60;;;;;;5067640;28;20033;-12
2022/06/04 11:27:26;;;;;;;12.32;6.03;;;39.10;35.60;;;;;;5075336;28;20382;-11
2022/06/04 11:29:56;;;;;;;11.95;7.07;;;39.40;34.70;;;;;;5075167;28;20039;-11
2022/06/04 11:32:31;;;;;;;13.57;7.47;;;39.50;33.90;;;;;;5075185;28;20484;-13
2022/06/04 11:35:25;;;;;;;13.02;6.95;;;39.40;34.90;;;;;;5074844;28;20108;-12
2022/06/04 11:38:29;;;;;;;13.25;7.15;;;39.50;35.00;;;;;;5074824;28;20384;-13
2022/06/04 11:41:12;;;;;;;12.05;7.10;;;39.70;35.00;;;;;;5075040;28;20075;-12
2022/06/04 11:43:47;;;;;;;11.55;7.28;;;39.90;34.80;;;;;;5075035;28;20036;-12
2022/06/04 11:46:46;;;;;;;12.88;7.93;;;40.10;34.80;;;;;;5074838;28;20025;-12
2022/06/04 11:49:21;;;;;;;15.05;8.30;;;39.90;34.80;;;;;;5074431;28;20119;-12
2022/06/04 11:51:59;;;;;;;13.63;9.68;;;39.90;33.40;;;;;;5075024;28;20047;-19
2022/06/04 11:54:56;;;;;;;11.98;8.15;;;39.90;33.60;;;;;;5074663;28;20107;-12
2022/06/04 11:57:43;;;;;;;12.30;7.45;;;39.70;33.60;;;;;;5074811;28;20104;-13
2022/06/04 12:00:28;;;;;;;12.07;6.22;;;39.40;34.50;;;;;;5074409;28;20516;-13
2022/06/04 12:03:06;;;;;;;13.35;6.63;;;38.80;35.00;;;;;;5074336;28;20492;-12
2022/06/04 12:05:43;;;;;;;14.48;7.28;;;38.70;36.10;;;;;;5074609;28;20036;-11
2022/06/04 12:08:13;;;;;;;16.55;8.40;;;38.90;36.10;;;;;;5074243;28;20029;-12
2022/06/04 12:10:57;;;;;;;10.48;6.50;;;39.10;35.20;;;;;;5073952;28;20142;-12
2022/06/04 12:13:37;;;;;;;16.50;8.10;;;39.00;35.20;;;;;;5073716;28;20493;-12
2022/06/04 12:16:26;;;;;;;12.30;8.45;;;38.60;35.40;;;;;;5074093;28;20029;-12
2022/06/04 12:24:15;;;;;;;11.60;5.30;;;38.30;36.00;;;;;;5073871;28;20036;-12
2022/06/04 12:24:43;;;;;;;9.27;5.90;;;38.40;36.60;;;;;;5073975;28;20043;-12
2022/06/04 12:27:22;;;;;;;9.13;4.93;;;38.80;35.50;;;;;;5073786;28;20400;-14
2022/06/04 12:29:56;;;;;;;9.88;5.78;;;38.90;34.30;;;;;;5074023;28;20114;-13
2022/06/04 12:32:31;;;;;;;9.55;5.85;;;39.00;34.70;;;;;;5073429;28;20025;-13
2022/06/04 12:35:09;;;;;;;10.20;5.70;;;39.10;34.80;;;;;;5074010;28;20021;-12
2022/06/04 12:37:37;;;;;;;8.25;5.40;;;39.10;34.30;;;;;;5073640;28;20055;-13
2022/06/04 12:40:27;;;;;;;11.50;5.47;;;38.90;34.90;;;;;;5073577;28;20060;-12
2022/06/04 12:43:35;;;;;;;8.70;4.80;;;39.00;34.00;;;;;;5073818;28;20425;-12
2022/06/04 12:46:10;;;;;;;10.52;5.30;;;39.20;35.10;;;;;;5073676;28;20061;-12
2022/06/04 12:49:08;;;;;;;12.73;6.63;;;39.80;33.70;;;;;;5073078;28;20511;-12
2022/06/04 12:51:54;;;;;;;11.68;5.68;;;39.80;33.80;;;;;;5068109;28;20055;-12
2022/06/04 12:54:41;;;;;;;13.65;6.18;;;39.50;34.50;;;;;;5073229;28;20028;-13
2022/06/04 12:57:21;;;;;;;13.30;6.03;;;39.20;34.90;;;;;;5073330;28;20571;-12
2022/06/04 12:59:51;;;;;;;11.40;7.20;;;38.80;35.50;;;;;;5073908;28;20024;-12
2022/06/04 13:03:02;;;;;;;12.15;6.82;;;38.40;35.60;;;;;;5073043;28;20027;-12
2022/06/04 13:05:28;;;;;;;11.88;6.78;;;37.80;36.50;;;;;;5073288;28;20036;-13
2022/06/04 13:08:16;;;;;;;13.15;6.47;;;37.50;37.30;;;;;;5073218;28;20042;-13
2022/06/04 13:10:57;;;;;;;9.00;5.72;;;37.50;36.60;;;;;;5073489;28;20040;-12
2022/06/04 13:13:41;;;;;;;10.25;6.65;;;37.50;37.40;;;;;;5073441;28;20036;-12
2022/06/04 13:16:30;;;;;;;10.77;6.32;;;37.40;37.40;;;;;;5073268;28;20024;-13
2022/06/04 13:19:08;;;;;;;11.38;6.20;;;37.10;37.40;;;;;;5073151;28;20028;-12
2022/06/04 13:21:44;;;;;;;9.18;5.47;;;36.90;38.60;;;;;;5073314;28;20469;-12